createdAt,value
2017-09-27T00:00:02.744Z,14.20
2017-09-27T00:02:32.489Z,14.30
2017-09-27T00:05:02.211Z,14.40
2017-09-27T00:07:31.185Z,14.30
2017-09-27T00:10:00.148Z,14.30
2017-09-27T00:12:29.884Z,14.10
2017-09-27T00:14:58.848Z,14.10
2017-09-27T00:17:27.824Z,14.10
2017-09-27T00:19:56.812Z,14.10
2017-09-27T00:22:25.794Z,14.10
2017-09-27T00:24:54.754Z,14.10
2017-09-27T00:27:24.590Z,14.10
2017-09-27T00:29:53.574Z,14.10
2017-09-27T00:32:22.531Z,14.10
2017-09-27T00:34:51.569Z,14.10
2017-09-27T00:37:20.568Z,14.20
2017-09-27T00:39:49.527Z,14.10
2017-09-27T00:42:18.546Z,14.00
2017-09-27T00:44:47.584Z,14.00
2017-09-27T00:47:17.317Z,14.00
2017-09-27T00:49:47.036Z,14.00
2017-09-27T00:52:16.029Z,14.10
2017-09-27T00:54:45.004Z,14.10
2017-09-27T00:57:14.392Z,14.10
2017-09-27T00:59:43.347Z,14.00
2017-09-27T01:02:12.351Z,14.00
2017-09-27T01:04:41.332Z,14.10
2017-09-27T01:07:11.140Z,14.10
2017-09-27T01:09:40.148Z,14.10
2017-09-27T01:12:09.104Z,14.20
2017-09-27T01:14:38.520Z,14.30
2017-09-27T01:17:07.473Z,14.40
2017-09-27T01:19:36.420Z,14.40
2017-09-27T01:22:05.413Z,14.60
2017-09-27T01:24:34.762Z,14.60
2017-09-27T01:27:03.749Z,15.20
2017-09-27T01:29:32.744Z,14.70
2017-09-27T01:32:02.225Z,14.70
2017-09-27T01:34:31.939Z,14.70
2017-09-27T01:37:01.309Z,14.80
2017-09-27T01:39:30.264Z,14.80
2017-09-27T01:41:59.228Z,14.90
2017-09-27T01:44:28.232Z,14.90
2017-09-27T01:46:57.236Z,14.90
2017-09-27T01:49:26.221Z,14.70
2017-09-27T01:51:55.193Z,14.70
2017-09-27T01:54:24.919Z,14.60
2017-09-27T01:56:53.937Z,14.50
2017-09-27T01:59:22.926Z,14.60
2017-09-27T02:01:51.887Z,14.60
2017-09-27T02:04:20.851Z,14.60
2017-09-27T02:06:49.833Z,14.50
2017-09-27T02:09:18.785Z,14.60
2017-09-27T02:11:47.773Z,14.50
2017-09-27T02:14:16.724Z,14.50
2017-09-27T02:16:46.542Z,14.40
2017-09-27T02:19:16.252Z,14.40
2017-09-27T02:21:46.148Z,14.40
2017-09-27T02:24:15.156Z,14.40
2017-09-27T02:26:44.908Z,14.30
2017-09-27T02:29:13.862Z,14.30
2017-09-27T02:31:43.616Z,14.30
2017-09-27T02:34:13.377Z,14.30
2017-09-27T02:36:43.125Z,14.30
2017-09-27T02:39:12.076Z,14.20
2017-09-27T02:41:41.841Z,14.20
2017-09-27T02:44:10.808Z,14.30
2017-09-27T02:46:39.765Z,14.20
2017-09-27T02:49:09.548Z,14.10
2017-09-27T02:51:38.501Z,14.10
2017-09-27T02:54:07.480Z,14.00
2017-09-27T02:56:36.440Z,14.00
2017-09-27T02:59:05.459Z,14.00
2017-09-27T03:01:34.425Z,14.10
2017-09-27T03:04:03.429Z,14.10
2017-09-27T03:06:32.377Z,14.10
2017-09-27T03:09:01.376Z,14.20
2017-09-27T03:11:30.337Z,14.20
2017-09-27T03:13:59.327Z,14.40
2017-09-27T03:16:28.271Z,14.40
2017-09-27T03:18:57.224Z,14.40
2017-09-27T03:21:26.264Z,14.50
2017-09-27T03:23:55.230Z,14.50
2017-09-27T03:26:24.200Z,14.60
2017-09-27T03:28:53.196Z,14.70
2017-09-27T03:31:22.201Z,14.60
2017-09-27T03:33:51.206Z,14.60
2017-09-27T03:36:20.194Z,14.60
2017-09-27T03:38:49.136Z,14.60
2017-09-27T03:41:18.129Z,14.60
2017-09-27T03:43:47.180Z,14.70
2017-09-27T03:46:16.159Z,14.70
2017-09-27T03:48:45.108Z,14.70
2017-09-27T03:51:14.116Z,14.70
2017-09-27T03:53:43.073Z,14.70
2017-09-27T03:56:12.826Z,14.60
2017-09-27T03:58:41.779Z,14.70
2017-09-27T04:01:10.767Z,14.70
2017-09-27T04:03:40.491Z,14.60
2017-09-27T04:06:09.877Z,14.70
2017-09-27T04:08:39.613Z,14.90
2017-09-27T04:11:08.596Z,14.90
2017-09-27T04:13:37.584Z,14.80
2017-09-27T04:16:06.544Z,14.80
2017-09-27T04:18:35.585Z,14.70
2017-09-27T04:21:04.602Z,14.60
2017-09-27T04:23:33.576Z,14.60
2017-09-27T04:26:02.536Z,14.60
2017-09-27T04:28:32.272Z,14.80
2017-09-27T04:31:01.229Z,14.80
2017-09-27T04:33:31.000Z,14.80
2017-09-27T04:35:59.979Z,14.80
2017-09-27T04:38:28.961Z,14.70
2017-09-27T04:40:57.921Z,14.90
2017-09-27T04:43:27.673Z,14.80
2017-09-27T04:45:56.637Z,14.80
2017-09-27T04:48:25.626Z,14.80
2017-09-27T04:50:54.604Z,14.90
2017-09-27T04:53:23.647Z,14.90
2017-09-27T04:55:53.193Z,15.00
2017-09-27T04:58:22.942Z,14.90
2017-09-27T05:00:52.303Z,14.80
2017-09-27T05:03:21.306Z,14.90
2017-09-27T05:05:51.439Z,14.90
2017-09-27T05:08:20.468Z,15.00
2017-09-27T05:10:49.425Z,15.00
2017-09-27T05:13:19.484Z,15.00
2017-09-27T05:15:49.692Z,15.00
2017-09-27T05:18:18.707Z,15.00
2017-09-27T05:20:47.663Z,15.00
2017-09-27T05:23:17.689Z,15.00
2017-09-27T05:25:46.640Z,15.00
2017-09-27T05:28:16.384Z,15.10
2017-09-27T05:30:45.908Z,15.10
2017-09-27T05:33:14.908Z,15.10
2017-09-27T05:35:43.954Z,15.10
2017-09-27T05:38:12.921Z,15.10
2017-09-27T05:40:41.899Z,15.00
2017-09-27T05:43:10.897Z,15.00
2017-09-27T05:45:39.854Z,15.00
2017-09-27T05:48:08.895Z,15.00
2017-09-27T05:50:38.608Z,15.00
2017-09-27T05:53:08.381Z,15.00
2017-09-27T05:55:37.715Z,15.10
2017-09-27T05:58:06.693Z,15.10
2017-09-27T06:00:35.667Z,15.10
2017-09-27T06:03:04.650Z,15.10
2017-09-27T06:05:33.610Z,15.10
2017-09-27T06:08:02.681Z,15.00
2017-09-27T06:10:32.164Z,15.10
2017-09-27T06:13:01.734Z,15.10
2017-09-27T06:15:30.688Z,15.20
2017-09-27T06:18:00.423Z,15.10
2017-09-27T06:20:29.453Z,15.00
2017-09-27T06:22:58.432Z,15.00
2017-09-27T06:25:27.408Z,15.00
2017-09-27T06:27:56.373Z,15.00
2017-09-27T06:30:26.053Z,15.10
2017-09-27T06:32:55.815Z,15.40
2017-09-27T06:35:24.776Z,15.30
2017-09-27T06:37:53.864Z,15.30
2017-09-27T06:40:23.199Z,15.40
2017-09-27T06:42:52.238Z,15.50
2017-09-27T06:45:21.199Z,15.40
2017-09-27T06:47:50.165Z,15.40
2017-09-27T06:50:19.860Z,15.40
2017-09-27T06:52:49.586Z,15.50
2017-09-27T06:55:18.584Z,15.50
2017-09-27T06:57:47.653Z,15.60
2017-09-27T07:00:16.685Z,15.60
2017-09-27T07:02:45.640Z,15.60
2017-09-27T07:05:16.411Z,15.70
2017-09-27T07:07:46.239Z,15.70
2017-09-27T07:10:16.006Z,15.60
2017-09-27T07:12:45.001Z,15.50
2017-09-27T07:15:14.608Z,15.50
2017-09-27T07:17:43.586Z,15.70
2017-09-27T07:20:13.310Z,15.70
2017-09-27T07:22:42.685Z,15.60
2017-09-27T07:25:12.431Z,15.70
2017-09-27T07:27:41.414Z,15.70
2017-09-27T07:30:10.372Z,15.70
2017-09-27T07:32:40.127Z,15.70
2017-09-27T07:35:09.083Z,15.70
2017-09-27T07:37:39.705Z,15.50
2017-09-27T07:40:09.454Z,15.60
2017-09-27T07:42:39.097Z,15.60
2017-09-27T07:45:08.092Z,15.60
2017-09-27T07:47:37.085Z,15.70
2017-09-27T07:50:06.049Z,15.80
2017-09-27T07:52:35.902Z,15.90
2017-09-27T07:55:05.642Z,16.00
2017-09-27T07:57:34.624Z,16.00
2017-09-27T08:00:04.346Z,16.00
2017-09-27T08:02:33.327Z,16.00
2017-09-27T08:05:03.030Z,16.00
2017-09-27T08:07:32.766Z,16.00
2017-09-27T08:10:01.821Z,15.90
2017-09-27T08:12:30.792Z,15.90
2017-09-27T08:14:59.876Z,15.90
2017-09-27T08:17:28.829Z,15.80
2017-09-27T08:19:57.805Z,15.80
2017-09-27T08:22:27.574Z,15.80
2017-09-27T08:24:56.532Z,15.80
2017-09-27T08:27:25.508Z,15.80
2017-09-27T08:29:55.658Z,16.00
2017-09-27T08:32:25.778Z,16.10
2017-09-27T08:34:54.782Z,16.10
2017-09-27T08:37:23.920Z,16.20
2017-09-27T08:39:52.857Z,16.40
2017-09-27T08:42:21.856Z,16.60
2017-09-27T08:44:50.824Z,16.70
2017-09-27T08:47:19.816Z,16.90
2017-09-27T08:49:48.780Z,16.90
2017-09-27T08:52:19.105Z,17.00
2017-09-27T08:54:48.876Z,17.10
2017-09-27T08:57:17.858Z,17.10
2017-09-27T08:59:47.612Z,17.20
2017-09-27T09:02:17.364Z,17.20
2017-09-27T09:04:46.419Z,17.20
2017-09-27T09:07:15.791Z,17.40
2017-09-27T09:09:44.812Z,17.40
2017-09-27T09:12:14.632Z,17.40
2017-09-27T09:14:43.608Z,17.40
2017-09-27T09:17:13.324Z,17.20
2017-09-27T09:19:43.068Z,17.30
2017-09-27T09:22:15.157Z,17.30
2017-09-27T09:24:44.361Z,17.20
2017-09-27T09:27:13.303Z,17.20
2017-09-27T09:29:42.299Z,17.30
2017-09-27T09:32:11.257Z,17.30
2017-09-27T09:34:40.235Z,17.30
2017-09-27T09:37:09.397Z,17.50
2017-09-27T09:39:38.366Z,17.40
2017-09-27T09:42:07.334Z,17.40
2017-09-27T09:44:37.190Z,17.20
2017-09-27T09:47:06.168Z,17.10
2017-09-27T09:49:35.166Z,17.10
2017-09-27T09:52:04.144Z,16.60
2017-09-27T09:54:33.114Z,17.10
2017-09-27T09:57:02.944Z,17.30
2017-09-27T09:59:31.922Z,17.20
2017-09-27T10:02:01.651Z,17.30
2017-09-27T10:04:31.806Z,17.40
2017-09-27T10:07:01.532Z,17.30
2017-09-27T10:09:30.515Z,17.40
2017-09-27T10:11:59.532Z,17.40
2017-09-27T10:14:28.515Z,17.40
2017-09-27T10:16:57.472Z,17.40
2017-09-27T10:19:26.445Z,17.90
2017-09-27T10:21:55.397Z,18.00
2017-09-27T10:24:24.353Z,18.20
2017-09-27T10:26:53.457Z,18.40
2017-09-27T10:29:22.436Z,18.30
2017-09-27T10:31:51.889Z,18.20
2017-09-27T10:34:21.736Z,18.20
2017-09-27T10:36:50.691Z,18.10
2017-09-27T10:39:20.455Z,17.80
2017-09-27T10:41:49.503Z,17.70
2017-09-27T10:44:18.492Z,17.80
2017-09-27T10:46:48.235Z,18.00
2017-09-27T10:49:17.220Z,18.40
2017-09-27T10:51:46.171Z,18.40
2017-09-27T10:54:15.558Z,18.70
2017-09-27T10:56:44.506Z,18.70
2017-09-27T10:59:13.519Z,18.70
2017-09-27T11:01:45.786Z,17.10
2017-09-27T11:04:14.767Z,18.70
2017-09-27T11:06:43.730Z,18.90
2017-09-27T11:09:13.533Z,19.00
2017-09-27T11:11:43.294Z,18.90
2017-09-27T11:14:12.251Z,18.90
2017-09-27T11:16:41.988Z,18.70
2017-09-27T11:19:11.701Z,18.60
2017-09-27T11:21:40.697Z,18.50
2017-09-27T11:24:09.661Z,18.50
2017-09-27T11:26:39.378Z,18.50
2017-09-27T11:29:08.775Z,18.30
2017-09-27T11:31:37.733Z,18.20
2017-09-27T11:34:07.841Z,17.90
2017-09-27T11:36:36.833Z,17.90
2017-09-27T11:39:06.105Z,17.90
2017-09-27T11:41:35.088Z,18.00
2017-09-27T11:44:04.100Z,18.10
2017-09-27T11:46:33.953Z,18.00
2017-09-27T11:49:03.665Z,18.10
2017-09-27T11:51:33.415Z,18.20
2017-09-27T11:54:02.471Z,18.20
2017-09-27T11:56:32.298Z,18.30
2017-09-27T11:59:01.662Z,18.40
2017-09-27T12:01:30.662Z,18.40
2017-09-27T12:03:59.667Z,18.30
2017-09-27T12:06:30.309Z,18.20
2017-09-27T12:08:59.280Z,18.00
2017-09-27T12:11:29.037Z,18.10
2017-09-27T12:13:58.003Z,17.90
2017-09-27T12:16:27.026Z,17.90
2017-09-27T12:18:56.857Z,17.90
2017-09-27T12:21:25.870Z,18.00
2017-09-27T12:23:54.851Z,18.10
2017-09-27T12:26:24.024Z,18.00
2017-09-27T12:28:52.987Z,18.10
2017-09-27T12:31:22.733Z,18.30
2017-09-27T12:33:51.741Z,18.30
2017-09-27T12:36:21.469Z,18.20
2017-09-27T12:38:50.443Z,18.20
2017-09-27T12:41:19.431Z,18.10
2017-09-27T12:43:48.789Z,17.90
2017-09-27T12:46:17.756Z,17.90
2017-09-27T12:48:47.528Z,17.80
2017-09-27T12:51:16.543Z,17.80
2017-09-27T12:53:45.543Z,17.70
2017-09-27T12:56:14.915Z,17.70
2017-09-27T12:58:43.865Z,17.90
2017-09-27T13:01:12.840Z,17.90
2017-09-27T13:03:42.625Z,17.80
2017-09-27T13:06:11.615Z,17.70
2017-09-27T13:08:40.651Z,17.80
2017-09-27T13:11:09.708Z,18.00
2017-09-27T13:13:38.672Z,18.00
2017-09-27T13:16:07.620Z,18.20
2017-09-27T13:18:36.704Z,18.30
2017-09-27T13:21:05.702Z,18.30
2017-09-27T13:23:35.439Z,18.60
2017-09-27T13:26:04.400Z,18.40
2017-09-27T13:28:34.122Z,18.30
2017-09-27T13:31:03.166Z,18.20
2017-09-27T13:33:32.160Z,18.00
2017-09-27T13:36:01.133Z,18.00
2017-09-27T13:38:30.868Z,17.90
2017-09-27T13:40:59.910Z,17.90
2017-09-27T13:43:28.936Z,18.10
2017-09-27T13:45:57.936Z,18.30
2017-09-27T13:48:26.912Z,18.40
2017-09-27T13:50:55.879Z,18.30
2017-09-27T13:53:24.843Z,18.20
2017-09-27T13:55:54.892Z,18.20
2017-09-27T13:58:24.246Z,18.00
2017-09-27T14:00:53.204Z,18.00
2017-09-27T14:03:22.205Z,18.10
2017-09-27T14:05:51.239Z,18.10
2017-09-27T14:08:20.988Z,18.20
2017-09-27T14:10:49.984Z,18.20
2017-09-27T14:13:18.955Z,18.30
2017-09-27T14:15:47.917Z,18.30
2017-09-27T14:18:17.754Z,18.80
2017-09-27T14:20:46.729Z,18.80
2017-09-27T14:23:16.098Z,19.20
2017-09-27T14:25:45.099Z,19.20
2017-09-27T14:28:14.124Z,18.80
2017-09-27T14:30:43.125Z,18.50
2017-09-27T14:33:12.178Z,18.50
2017-09-27T14:35:41.137Z,18.10
2017-09-27T14:38:10.149Z,17.90
2017-09-27T14:40:39.133Z,17.80
2017-09-27T14:43:08.221Z,17.80
2017-09-27T14:45:37.206Z,17.80
2017-09-27T14:48:06.182Z,17.60
2017-09-27T14:50:35.205Z,17.50
2017-09-27T14:53:04.207Z,17.50
2017-09-27T14:55:33.196Z,17.40
2017-09-27T14:58:02.550Z,17.30
2017-09-27T15:00:31.521Z,17.30
2017-09-27T15:03:01.270Z,17.30
2017-09-27T15:05:30.250Z,17.20
2017-09-27T15:07:59.212Z,17.20
2017-09-27T15:10:29.012Z,17.00
2017-09-27T15:12:58.822Z,17.00
2017-09-27T15:15:27.819Z,17.00
2017-09-27T15:17:56.796Z,17.00
2017-09-27T15:20:26.141Z,17.00
2017-09-27T15:22:55.099Z,17.00
2017-09-27T15:25:24.573Z,17.10
2017-09-27T15:27:53.536Z,17.10
2017-09-27T15:30:23.377Z,17.00
2017-09-27T15:32:54.066Z,17.00
2017-09-27T15:35:23.074Z,17.00
2017-09-27T15:37:52.057Z,17.00
2017-09-27T15:40:21.005Z,16.90
2017-09-27T15:42:50.032Z,16.90
2017-09-27T15:45:19.826Z,16.80
2017-09-27T15:47:49.544Z,16.70
2017-09-27T15:50:19.353Z,16.70
2017-09-27T15:52:49.173Z,16.80
2017-09-27T15:55:20.090Z,16.80
2017-09-27T15:57:49.073Z,16.70
2017-09-27T16:00:18.045Z,16.60
2017-09-27T16:02:47.805Z,16.70
2017-09-27T16:05:16.781Z,16.60
2017-09-27T16:07:47.263Z,16.60
2017-09-27T16:10:17.020Z,16.60
2017-09-27T16:12:46.777Z,16.70
2017-09-27T16:15:16.506Z,16.60
2017-09-27T16:17:46.258Z,16.70
2017-09-27T16:20:15.999Z,16.70
2017-09-27T16:22:45.413Z,16.60
2017-09-27T16:25:15.144Z,16.60
2017-09-27T16:27:44.156Z,16.70
2017-09-27T16:30:13.124Z,16.80
2017-09-27T16:32:43.221Z,16.80
2017-09-27T16:35:13.701Z,16.80
2017-09-27T16:37:43.489Z,16.80
2017-09-27T16:40:13.549Z,16.90
2017-09-27T16:42:42.541Z,16.90
2017-09-27T16:45:11.953Z,17.00
2017-09-27T16:47:40.938Z,16.90
2017-09-27T16:50:11.536Z,16.90
2017-09-27T16:52:42.013Z,17.00
2017-09-27T16:55:11.539Z,16.80
2017-09-27T16:57:41.282Z,16.70
2017-09-27T17:00:11.250Z,16.60
2017-09-27T17:02:41.498Z,16.60
2017-09-27T17:05:10.996Z,16.50
2017-09-27T17:07:40.377Z,16.50
2017-09-27T17:10:09.353Z,16.50
2017-09-27T17:12:38.340Z,16.50
2017-09-27T17:15:07.308Z,16.50
2017-09-27T17:17:36.321Z,16.40
2017-09-27T17:20:05.708Z,16.40
2017-09-27T17:22:34.833Z,16.40
2017-09-27T17:25:04.544Z,16.30
2017-09-27T17:27:33.947Z,16.30
2017-09-27T17:30:02.920Z,16.40
2017-09-27T17:32:31.944Z,16.40
2017-09-27T17:35:00.933Z,16.40
2017-09-27T17:37:30.297Z,16.40
2017-09-27T17:39:59.280Z,16.40
2017-09-27T17:42:29.028Z,16.30
2017-09-27T17:44:58.066Z,16.20
2017-09-27T17:47:27.813Z,16.10
2017-09-27T17:49:56.784Z,16.10
2017-09-27T17:52:26.512Z,16.00
2017-09-27T17:54:55.953Z,16.00
2017-09-27T17:57:25.757Z,15.90
2017-09-27T17:59:54.740Z,15.90
2017-09-27T18:02:23.736Z,15.90
2017-09-27T18:07:55.670Z,15.80
2017-09-27T18:10:41.352Z,15.60
2017-09-27T18:13:30.051Z,15.50
2017-09-27T18:16:14.678Z,15.50
2017-09-27T18:18:44.900Z,15.40
2017-09-27T18:21:13.954Z,15.30
2017-09-27T18:23:43.690Z,15.20
2017-09-27T18:26:13.427Z,15.10
2017-09-27T18:28:43.552Z,15.10
2017-09-27T18:31:12.516Z,14.90
2017-09-27T18:33:42.270Z,14.80
2017-09-27T18:36:11.267Z,14.80
2017-09-27T18:38:40.970Z,14.70
2017-09-27T18:41:10.463Z,14.70
2017-09-27T18:43:41.108Z,14.60
2017-09-27T18:46:10.084Z,14.50
2017-09-27T18:48:39.088Z,14.50
2017-09-27T18:51:08.979Z,14.50
2017-09-27T18:53:37.958Z,14.50
2017-09-27T18:56:06.946Z,14.40
2017-09-27T18:58:36.690Z,14.40
2017-09-27T19:01:05.721Z,14.40
2017-09-27T19:03:34.726Z,14.40
2017-09-27T19:06:03.902Z,14.40
2017-09-27T19:08:32.908Z,14.40
2017-09-27T19:11:01.910Z,14.40
2017-09-27T19:13:31.273Z,14.40
2017-09-27T19:16:01.054Z,14.30
2017-09-27T19:18:30.026Z,14.30
2017-09-27T19:20:59.445Z,14.30
2017-09-27T19:23:28.450Z,14.20
2017-09-27T19:25:57.423Z,14.20
2017-09-27T19:28:26.521Z,14.20
2017-09-27T19:30:55.754Z,14.10
2017-09-27T19:33:24.741Z,14.20
2017-09-27T19:35:53.701Z,14.10
2017-09-27T19:38:23.471Z,14.10
2017-09-27T19:40:52.470Z,14.10
2017-09-27T19:43:21.455Z,14.00
2017-09-27T19:45:51.263Z,14.00
2017-09-27T19:48:20.289Z,14.00
2017-09-27T19:50:50.462Z,13.90
2017-09-27T19:53:19.495Z,13.90
2017-09-27T19:55:49.225Z,13.80
2017-09-27T19:58:18.199Z,13.90
2017-09-27T20:00:47.210Z,13.90
2017-09-27T20:03:16.183Z,13.90
2017-09-27T20:05:45.940Z,13.80
2017-09-27T20:08:14.974Z,13.80
2017-09-27T20:10:44.795Z,13.80
2017-09-27T20:13:14.545Z,13.80
2017-09-27T20:15:44.464Z,13.80
2017-09-27T20:18:13.435Z,13.80
2017-09-27T20:20:42.446Z,13.80
2017-09-27T20:23:11.412Z,13.80
2017-09-27T20:25:41.880Z,13.70
2017-09-27T20:28:11.777Z,13.80
2017-09-27T20:30:40.765Z,13.70
2017-09-27T20:33:10.142Z,13.70
2017-09-27T20:35:39.576Z,13.60
2017-09-27T20:38:08.621Z,13.60
2017-09-27T20:40:38.381Z,13.60
2017-09-27T20:43:07.350Z,13.50
2017-09-27T20:45:37.634Z,13.50
2017-09-27T20:48:07.437Z,13.50
2017-09-27T20:50:37.639Z,13.50
2017-09-27T20:53:07.396Z,13.40
2017-09-27T20:55:36.380Z,13.40
2017-09-27T20:58:05.537Z,13.60
2017-09-27T21:00:34.527Z,13.30
2017-09-27T21:03:03.496Z,13.40
2017-09-27T21:05:32.554Z,13.30
2017-09-27T21:08:01.933Z,13.30
2017-09-27T21:10:30.944Z,13.30
2017-09-27T21:13:00.705Z,13.30
2017-09-27T21:15:29.681Z,13.30
2017-09-27T21:17:58.645Z,13.40
2017-09-27T21:20:27.650Z,13.40
2017-09-27T21:22:56.606Z,13.40
2017-09-27T21:25:25.661Z,13.30
2017-09-27T21:27:55.040Z,13.30
2017-09-27T21:30:24.275Z,13.30
2017-09-27T21:32:53.561Z,13.30
2017-09-27T21:35:22.557Z,13.30
2017-09-27T21:37:51.506Z,13.30
2017-09-27T21:40:20.521Z,13.30
2017-09-27T21:42:49.489Z,13.20
2017-09-27T21:45:18.869Z,13.20
2017-09-27T21:47:48.608Z,13.20
2017-09-27T21:50:17.593Z,13.20
2017-09-27T21:52:46.568Z,13.20
2017-09-27T21:55:16.377Z,13.20
2017-09-27T21:57:46.104Z,13.20
2017-09-27T22:00:15.097Z,13.20
2017-09-27T22:02:44.817Z,13.10
2017-09-27T22:05:14.341Z,13.00
2017-09-27T22:07:43.696Z,13.00
2017-09-27T22:10:13.871Z,13.00
2017-09-27T22:12:42.847Z,13.00
2017-09-27T22:15:11.822Z,13.00
2017-09-27T22:17:40.801Z,12.90
2017-09-27T22:20:10.152Z,12.90
2017-09-27T22:22:39.900Z,13.50
2017-09-27T22:25:09.620Z,12.90
2017-09-27T22:27:38.711Z,12.90
2017-09-27T22:30:08.442Z,12.90
2017-09-27T22:32:37.414Z,12.90
2017-09-27T22:35:07.141Z,12.80
2017-09-27T22:37:36.123Z,12.80
2017-09-27T22:40:05.613Z,12.80
2017-09-27T22:42:35.355Z,12.90
2017-09-27T22:45:04.308Z,12.80
2017-09-27T22:47:34.156Z,12.80
2017-09-27T22:50:03.495Z,12.80
2017-09-27T22:52:32.483Z,12.80
2017-09-27T22:55:01.473Z,12.80
2017-09-27T22:57:30.455Z,12.80
2017-09-27T22:59:59.938Z,12.80
2017-09-27T23:02:28.958Z,12.80
2017-09-27T23:04:57.914Z,12.80
2017-09-27T23:07:28.044Z,12.70
2017-09-27T23:09:57.049Z,12.80
2017-09-27T23:12:26.403Z,12.80
2017-09-27T23:14:56.155Z,12.90
2017-09-27T23:17:25.100Z,12.80
2017-09-27T23:19:54.671Z,12.80
2017-09-27T23:22:35.554Z,12.80
2017-09-27T23:25:05.338Z,12.40
2017-09-27T23:27:34.701Z,12.80
2017-09-27T23:30:04.072Z,12.80
2017-09-27T23:32:33.028Z,12.70
2017-09-27T23:35:02.082Z,12.70
2017-09-27T23:37:31.820Z,12.70
2017-09-27T23:40:01.560Z,12.80
2017-09-27T23:42:32.024Z,12.80
2017-09-27T23:45:01.884Z,12.80
2017-09-27T23:47:30.831Z,12.90
2017-09-27T23:50:00.589Z,12.90
2017-09-27T23:52:29.583Z,13.00
2017-09-27T23:54:59.208Z,13.00
2017-09-27T23:57:28.221Z,13.00
2017-09-27T23:59:58.353Z,13.00
